Terminal Aerodrome Forecast
Issued by NWS

Home | Current Version | Previous Version | Text Only | Print | Product List | Glossary On
Versions: 1 2 3 4 5 6 7 8 9 10 11 12
000
FTUS42 KTAE 291700
TAFABY
TAF
KABY 291739Z 2918/3018 18008KT P6SM SCT250
     FM300300 22003KT P6SM SCT020 SCT250
     FM300900 33006KT P6SM BKN025
     FM301300 34010KT P6SM SKC=

USA.gov is the U.S. government's official web portal to all federal, state and local government web resources and services.